Readfield, Maine
Current Conditions -  °F | °C
As of 12:53 AM on Monday 26 Jan 2015 (Local Time) from KAUG Reporting Station
Clear Clear  
Wind Chill: -6°   Ceiling: Unl
Heat Index:   Visibility: 10mi
Dew Point: -6°   Wind: 6mph
Humidity: 61%   Direction: 300°WNW
Pressure: 30.03"   Gusts: NA
Location:  44.39°N, 69.97°W
Report Text: KAUG 260553Z AUTO 30005KT 10SM CLR M15/M21 A3003 RMK AO2 SLP178 T11501211 11117 21156 51024
Loading
Personal Weather Stations






























Interactive Weather Map New forecast layout! Learn more

10-Day Weather Forecast

Advertisements
Track Severe Weather on mobile